createdAt,value
2023-01-22T00:01:07.089Z,16.64
2023-01-22T00:03:33.780Z,15.06
2023-01-22T00:06:00.449Z,16.31
2023-01-22T00:08:27.091Z,15.38
2023-01-22T00:10:54.447Z,15.24
2023-01-22T00:13:21.810Z,14.88
2023-01-22T00:15:48.534Z,15.32
2023-01-22T00:18:15.620Z,14.64
2023-01-22T00:20:50.929Z,15.20
2023-01-22T00:23:17.623Z,15.56
2023-01-22T00:25:44.472Z,15.01
2023-01-22T00:28:11.423Z,15.99
2023-01-22T00:30:38.160Z,14.70
2023-01-22T00:33:04.900Z,16.60
2023-01-22T00:35:31.576Z,15.83
2023-01-22T00:37:58.227Z,15.19
2023-01-22T00:40:25.236Z,16.42
2023-01-22T00:42:51.928Z,16.91
2023-01-22T00:45:18.565Z,16.98
2023-01-22T00:47:45.705Z,16.20
2023-01-22T00:50:15.862Z,16.03
2023-01-22T00:52:42.640Z,15.80
2023-01-22T00:55:09.386Z,15.35
2023-01-22T00:57:36.450Z,15.76
2023-01-22T01:00:03.246Z,15.82
2023-01-22T01:02:29.918Z,15.89
2023-01-22T01:04:56.584Z,15.67
2023-01-22T01:07:23.225Z,15.50
2023-01-22T01:09:49.868Z,15.68
2023-01-22T01:12:16.624Z,15.84
2023-01-22T01:14:45.611Z,15.29
2023-01-22T01:17:12.328Z,15.04
2023-01-22T01:19:38.984Z,15.08
2023-01-22T01:22:05.622Z,14.35
2023-01-22T01:24:32.293Z,14.30
2023-01-22T01:26:58.943Z,14.93
2023-01-22T01:29:25.568Z,14.71
2023-01-22T01:31:52.758Z,14.02
2023-01-22T01:34:19.522Z,13.70
2023-01-22T01:36:49.429Z,13.84
2023-01-22T01:39:16.645Z,13.88
2023-01-22T01:41:43.375Z,13.25
2023-01-22T01:44:16.711Z,14.33
2023-01-22T01:47:10.941Z,14.09
2023-01-22T01:49:47.250Z,14.15
2023-01-22T01:52:13.951Z,13.78
2023-01-22T01:54:42.092Z,14.37
2023-01-22T01:57:11.668Z,14.30
2023-01-22T01:59:38.677Z,14.33
2023-01-22T02:02:08.283Z,14.82
2023-01-22T02:04:34.992Z,14.86
2023-01-22T02:07:02.069Z,13.87
2023-01-22T02:09:28.721Z,14.40
2023-01-22T02:11:55.350Z,15.02
2023-01-22T02:14:24.376Z,14.30
2023-01-22T02:17:11.757Z,14.34
2023-01-22T02:19:39.138Z,15.02
2023-01-22T02:22:13.866Z,15.93
2023-01-22T02:24:43.280Z,14.76
2023-01-22T02:27:09.987Z,14.50
2023-01-22T02:29:36.622Z,14.95
2023-01-22T02:32:03.269Z,14.69
2023-01-22T02:34:30.073Z,15.25
2023-01-22T02:36:56.702Z,13.80
2023-01-22T02:39:23.338Z,13.58
2023-01-22T02:41:50.055Z,13.53
2023-01-22T02:44:19.449Z,13.67
2023-01-22T02:46:46.128Z,13.11
2023-01-22T02:49:12.793Z,13.65
2023-01-22T02:51:39.643Z,13.95
2023-01-22T02:54:06.273Z,13.50
2023-01-22T02:56:33.759Z,14.28
2023-01-22T02:59:01.276Z,14.14
2023-01-22T03:01:27.932Z,13.99
2023-01-22T03:03:56.118Z,14.06
2023-01-22T03:06:24.715Z,14.62
2023-01-22T03:08:58.892Z,13.11
2023-01-22T03:11:26.490Z,12.77
2023-01-22T03:13:53.378Z,13.45
2023-01-22T03:16:22.982Z,14.45
2023-01-22T03:18:49.691Z,13.84
2023-01-22T03:21:16.413Z,12.84
2023-01-22T03:23:44.742Z,13.27
2023-01-22T03:26:11.383Z,13.24
2023-01-22T03:28:38.036Z,12.96
2023-01-22T03:31:07.932Z,13.75
2023-01-22T03:33:39.135Z,13.63
2023-01-22T03:36:07.755Z,13.92
2023-01-22T03:38:34.432Z,13.18
2023-01-22T03:41:21.219Z,12.88
2023-01-22T03:43:47.887Z,12.19
2023-01-22T03:46:16.648Z,13.54
2023-01-22T03:48:43.442Z,13.02
2023-01-22T03:51:14.263Z,13.05
2023-01-22T03:53:41.632Z,13.25
2023-01-22T03:56:12.797Z,13.00
2023-01-22T03:58:39.526Z,13.01
2023-01-22T04:01:08.396Z,11.80
2023-01-22T04:03:35.217Z,12.21
2023-01-22T04:06:01.884Z,12.66
2023-01-22T04:08:29.412Z,12.73
2023-01-22T04:10:56.532Z,12.67
2023-01-22T04:13:26.518Z,13.15
2023-01-22T04:15:53.158Z,12.55
2023-01-22T04:18:22.858Z,12.54
2023-01-22T04:20:52.824Z,12.52
2023-01-22T04:23:20.040Z,12.66
2023-01-22T04:25:47.012Z,13.41
2023-01-22T04:28:13.717Z,12.19
2023-01-22T04:30:40.819Z,12.00
2023-01-22T04:33:07.520Z,12.26
2023-01-22T04:35:38.342Z,12.30
2023-01-22T04:38:05.759Z,12.58
2023-01-22T04:40:32.673Z,13.60
2023-01-22T04:43:03.233Z,12.93
2023-01-22T04:45:29.904Z,13.36
2023-01-22T04:47:57.467Z,12.99
2023-01-22T04:50:28.830Z,13.15
2023-01-22T04:52:55.643Z,13.38
2023-01-22T04:55:22.919Z,12.62
2023-01-22T04:57:49.653Z,11.88
2023-01-22T05:00:17.249Z,12.23
2023-01-22T05:02:44.181Z,12.12
2023-01-22T05:05:10.945Z,12.34
2023-01-22T05:07:37.611Z,11.68
2023-01-22T05:10:04.597Z,11.44
2023-01-22T05:12:31.595Z,12.08
2023-01-22T05:14:58.237Z,13.60
2023-01-22T05:17:24.894Z,12.77
2023-01-22T05:19:51.543Z,12.56
2023-01-22T05:22:18.197Z,11.69
2023-01-22T05:24:44.848Z,12.10
2023-01-22T05:27:11.494Z,12.83
2023-01-22T05:29:38.563Z,13.22
2023-01-22T05:32:05.426Z,12.67
2023-01-22T05:34:32.101Z,12.10
2023-01-22T05:36:58.729Z,12.87
2023-01-22T05:39:25.373Z,13.07
2023-01-22T05:41:52.062Z,12.36
2023-01-22T05:44:18.697Z,12.95
2023-01-22T05:46:45.833Z,12.09
2023-01-22T05:49:12.511Z,12.74
2023-01-22T05:51:39.161Z,12.64
2023-01-22T05:54:05.807Z,12.82
2023-01-22T05:56:32.448Z,13.48
2023-01-22T05:58:59.128Z,12.68
2023-01-22T06:01:25.775Z,13.00
2023-01-22T06:03:55.344Z,14.20
2023-01-22T06:06:22.067Z,14.14
2023-01-22T06:08:49.522Z,14.32
2023-01-22T06:11:16.584Z,14.44
2023-01-22T06:13:43.301Z,14.44
2023-01-22T06:16:10.008Z,13.15
2023-01-22T06:18:36.672Z,12.38
2023-01-22T06:21:07.497Z,12.48
2023-01-22T06:23:37.181Z,11.38
2023-01-22T06:26:04.185Z,11.87
2023-01-22T06:28:30.861Z,11.76
2023-01-22T06:31:01.729Z,11.91
2023-01-22T06:33:28.464Z,12.10
2023-01-22T06:35:55.180Z,11.44
2023-01-22T06:38:22.536Z,11.15
2023-01-22T06:40:56.118Z,12.49
2023-01-22T06:43:22.855Z,12.80
2023-01-22T06:45:49.651Z,12.40
2023-01-22T06:48:16.306Z,11.48
2023-01-22T06:50:43.299Z,11.91
2023-01-22T06:53:10.067Z,11.45
2023-01-22T06:55:36.759Z,12.50
2023-01-22T06:58:03.434Z,12.13
2023-01-22T07:00:30.127Z,12.92
2023-01-22T07:02:56.834Z,12.90
2023-01-22T07:05:23.983Z,12.70
2023-01-22T07:07:53.469Z,12.28
2023-01-22T07:10:20.483Z,12.40
2023-01-22T07:12:51.060Z,12.28
2023-01-22T07:15:17.724Z,12.09
2023-01-22T07:17:49.698Z,13.70
2023-01-22T07:20:17.044Z,13.83
2023-01-22T07:22:43.891Z,13.35
2023-01-22T07:25:10.936Z,12.98
2023-01-22T07:27:37.608Z,13.04
2023-01-22T07:30:05.781Z,12.75
2023-01-22T07:32:32.670Z,13.70
2023-01-22T07:34:59.331Z,13.88
2023-01-22T07:37:26.046Z,12.39
2023-01-22T07:39:52.677Z,12.97
2023-01-22T07:42:19.320Z,12.81
2023-01-22T07:44:46.515Z,13.30
2023-01-22T07:47:13.351Z,14.51
2023-01-22T07:49:40.022Z,14.45
2023-01-22T07:52:06.676Z,13.67
2023-01-22T07:54:33.426Z,15.07
2023-01-22T07:57:00.098Z,14.65
2023-01-22T07:59:26.752Z,15.01
2023-01-22T08:01:54.868Z,14.89
2023-01-22T08:04:21.569Z,14.13
2023-01-22T08:06:48.239Z,14.86
2023-01-22T08:09:14.890Z,14.17
2023-01-22T08:11:41.565Z,14.23
2023-01-22T08:14:08.200Z,13.80
2023-01-22T08:16:34.905Z,14.45
2023-01-22T08:19:02.238Z,14.96
2023-01-22T08:21:28.969Z,13.78
2023-01-22T08:23:56.824Z,13.36
2023-01-22T08:26:23.473Z,14.83
2023-01-22T08:28:50.206Z,14.76
2023-01-22T08:31:27.355Z,13.96
2023-01-22T08:33:54.300Z,14.16
2023-01-22T08:36:21.423Z,13.96
2023-01-22T08:38:48.211Z,14.64
2023-01-22T08:41:14.959Z,14.24
2023-01-22T08:43:41.716Z,14.47
2023-01-22T08:46:08.503Z,13.73
2023-01-22T08:48:35.285Z,13.57
2023-01-22T08:51:02.049Z,14.09
2023-01-22T08:53:28.685Z,14.28
2023-01-22T08:55:55.355Z,14.62
2023-01-22T08:58:22.042Z,14.27
2023-01-22T09:00:51.305Z,14.53
2023-01-22T09:03:18.070Z,14.15
2023-01-22T09:05:44.728Z,14.37
2023-01-22T09:08:12.892Z,13.98
2023-01-22T09:10:39.672Z,14.12
2023-01-22T09:13:06.335Z,13.56
2023-01-22T09:15:33.224Z,13.49
2023-01-22T09:18:00.244Z,12.95
2023-01-22T09:20:26.940Z,12.14
2023-01-22T09:22:53.696Z,12.82
2023-01-22T09:25:20.458Z,12.88
2023-01-22T09:27:47.223Z,14.02
2023-01-22T09:30:13.922Z,13.26
2023-01-22T09:32:40.934Z,14.45
2023-01-22T09:35:08.339Z,14.20
2023-01-22T09:37:34.983Z,14.07
2023-01-22T09:40:15.887Z,13.70
2023-01-22T09:42:42.639Z,14.23
2023-01-22T09:45:11.353Z,13.12
2023-01-22T09:47:42.571Z,13.62
2023-01-22T09:50:15.020Z,14.32
2023-01-22T09:52:41.668Z,14.23
2023-01-22T09:55:16.254Z,13.86
2023-01-22T09:57:45.886Z,13.09
2023-01-22T10:00:27.335Z,13.94
2023-01-22T10:03:00.842Z,13.80
2023-01-22T10:05:33.474Z,13.78
2023-01-22T10:08:21.401Z,13.49
2023-01-22T10:10:48.234Z,13.44
2023-01-22T10:13:28.323Z,15.38
2023-01-22T10:15:55.326Z,15.36
2023-01-22T10:18:30.474Z,13.82
2023-01-22T10:20:58.142Z,13.37
2023-01-22T10:23:25.613Z,13.65
2023-01-22T10:25:59.284Z,14.49
2023-01-22T10:28:26.816Z,14.83
2023-01-22T10:30:53.519Z,14.18
2023-01-22T10:33:23.373Z,14.77
2023-01-22T10:35:52.117Z,15.12
2023-01-22T10:38:26.357Z,13.96
2023-01-22T10:41:01.444Z,15.48
2023-01-22T10:43:35.888Z,15.04
2023-01-22T10:46:24.026Z,14.59
2023-01-22T10:49:00.517Z,14.86
2023-01-22T10:51:30.706Z,16.64
2023-01-22T10:53:57.512Z,16.87
2023-01-22T10:56:35.494Z,15.05
2023-01-22T10:59:15.223Z,16.18
2023-01-22T11:01:41.970Z,15.35
2023-01-22T11:04:25.101Z,14.61
2023-01-22T11:06:58.171Z,14.13
2023-01-22T11:09:39.795Z,15.71
2023-01-22T11:12:25.476Z,14.80
2023-01-22T11:15:12.063Z,14.57
2023-01-22T11:17:40.612Z,14.16
2023-01-22T11:20:20.318Z,15.68
2023-01-22T11:22:54.349Z,16.93
2023-01-22T11:25:21.638Z,16.39
2023-01-22T11:27:48.167Z,16.53
2023-01-22T11:30:45.657Z,17.19
2023-01-22T11:33:27.373Z,15.82
2023-01-22T11:35:54.873Z,15.33
2023-01-22T11:38:43.026Z,15.85
2023-01-22T11:41:27.904Z,16.74
2023-01-22T11:44:10.931Z,15.48
2023-01-22T11:47:20.162Z,16.73
2023-01-22T11:50:07.887Z,15.55
2023-01-22T11:52:55.457Z,15.73
2023-01-22T11:55:51.311Z,15.71
2023-01-22T11:58:33.327Z,16.64
2023-01-22T12:01:09.914Z,15.53
2023-01-22T12:03:48.581Z,14.74
2023-01-22T12:06:31.977Z,16.51
2023-01-22T12:09:05.056Z,16.47
2023-01-22T12:11:53.214Z,15.41
2023-01-22T12:14:28.526Z,15.32
2023-01-22T12:17:22.827Z,15.16
2023-01-22T12:19:58.501Z,15.56
2023-01-22T12:22:35.597Z,15.88
2023-01-22T12:25:24.960Z,15.97
2023-01-22T12:28:03.896Z,16.55
2023-01-22T12:30:44.678Z,15.80
2023-01-22T12:33:17.361Z,15.62
2023-01-22T12:35:44.028Z,14.68
2023-01-22T12:38:12.257Z,13.91
2023-01-22T12:40:57.541Z,13.74
2023-01-22T12:43:35.180Z,13.63
2023-01-22T12:46:19.927Z,13.38
2023-01-22T12:49:05.976Z,15.01
2023-01-22T12:51:42.593Z,16.45
2023-01-22T12:54:21.321Z,13.84
2023-01-22T12:56:52.400Z,13.89
2023-01-22T12:59:34.964Z,14.12
2023-01-22T13:02:03.367Z,15.29
2023-01-22T13:04:30.881Z,16.09
2023-01-22T13:07:17.808Z,16.42
2023-01-22T13:09:44.452Z,16.40
2023-01-22T13:12:23.277Z,15.15
2023-01-22T13:14:49.922Z,13.33
2023-01-22T13:17:21.476Z,15.47
2023-01-22T13:19:48.208Z,14.57
2023-01-22T13:22:23.411Z,14.76
2023-01-22T13:24:54.848Z,14.13
2023-01-22T13:27:27.357Z,13.61
2023-01-22T13:30:08.024Z,14.80
2023-01-22T13:32:34.718Z,20.00
2023-01-22T13:35:05.695Z,15.51
2023-01-22T13:37:32.375Z,15.50
2023-01-22T13:39:59.017Z,15.81
2023-01-22T13:42:25.656Z,15.42
2023-01-22T13:44:52.331Z,14.88
2023-01-22T13:47:32.820Z,15.74
2023-01-22T13:49:59.498Z,14.43
2023-01-22T13:52:26.135Z,16.22
2023-01-22T13:55:04.471Z,15.55
2023-01-22T13:57:31.126Z,14.71
2023-01-22T13:59:59.087Z,13.88
2023-01-22T14:02:35.095Z,14.04
2023-01-22T14:05:01.887Z,13.38
2023-01-22T14:07:33.779Z,14.05
2023-01-22T14:10:24.305Z,15.17
2023-01-22T14:13:03.665Z,14.70
2023-01-22T14:15:30.321Z,13.98
2023-01-22T14:18:10.774Z,14.11
2023-01-22T14:20:40.823Z,15.17
2023-01-22T14:23:07.466Z,14.94
2023-01-22T14:25:41.913Z,14.89
2023-01-22T14:28:08.600Z,14.67
2023-01-22T14:30:35.297Z,14.34
2023-01-22T14:33:01.946Z,13.99
2023-01-22T14:35:28.619Z,14.87
2023-01-22T14:37:55.609Z,13.77
2023-01-22T14:40:23.440Z,14.45
2023-01-22T14:42:50.165Z,15.48
2023-01-22T14:45:17.768Z,16.42
2023-01-22T14:47:44.558Z,16.71
2023-01-22T14:50:11.643Z,17.22
2023-01-22T14:52:39.099Z,17.04
2023-01-22T14:55:06.157Z,17.68
2023-01-22T14:57:32.793Z,18.61
2023-01-22T15:00:00.868Z,16.37
2023-01-22T15:02:27.527Z,17.42
2023-01-22T15:04:54.371Z,19.24
2023-01-22T15:07:22.171Z,17.95
2023-01-22T15:09:48.997Z,17.76
2023-01-22T15:12:15.666Z,21.80
2023-01-22T15:14:42.588Z,19.20
2023-01-22T15:17:09.238Z,17.53
2023-01-22T15:19:41.133Z,17.86
2023-01-22T15:22:08.387Z,20.54
2023-01-22T15:24:35.085Z,19.88
2023-01-22T15:27:01.737Z,18.82
2023-01-22T15:29:28.395Z,18.04
2023-01-22T15:31:55.127Z,18.23
2023-01-22T15:34:21.797Z,17.21
2023-01-22T15:36:48.460Z,17.68
2023-01-22T15:39:15.140Z,15.65
2023-01-22T15:41:41.778Z,19.06
2023-01-22T15:44:11.437Z,21.12
2023-01-22T15:46:39.262Z,21.23
2023-01-22T15:49:06.277Z,18.59
2023-01-22T15:51:32.933Z,16.52
2023-01-22T15:54:00.963Z,16.58
2023-01-22T15:56:29.159Z,20.27
2023-01-22T15:58:56.055Z,20.95
2023-01-22T16:01:22.858Z,20.24
2023-01-22T16:03:49.531Z,19.24
2023-01-22T16:06:23.262Z,19.90
2023-01-22T16:08:50.383Z,16.61
2023-01-22T16:11:17.094Z,17.93
2023-01-22T16:13:46.793Z,18.97
2023-01-22T16:16:20.353Z,18.80
2023-01-22T16:18:47.530Z,17.58
2023-01-22T16:21:14.468Z,19.77
2023-01-22T16:23:42.061Z,19.16
2023-01-22T16:26:14.341Z,20.05
2023-01-22T16:28:41.006Z,20.69
2023-01-22T16:31:12.558Z,15.12
2023-01-22T16:33:41.201Z,14.91
2023-01-22T16:36:13.057Z,13.89
2023-01-22T16:38:39.892Z,12.57
2023-01-22T16:41:24.993Z,12.99
2023-01-22T16:43:52.048Z,17.21
2023-01-22T16:46:19.737Z,16.17
2023-01-22T16:48:46.753Z,13.45
2023-01-22T16:51:18.171Z,14.57
2023-01-22T16:53:45.063Z,18.36
2023-01-22T16:56:11.753Z,14.92
2023-01-22T16:58:38.444Z,16.35
2023-01-22T17:01:08.923Z,16.63
2023-01-22T17:03:35.594Z,15.73
2023-01-22T17:06:02.337Z,14.13
2023-01-22T17:08:29.798Z,14.53
2023-01-22T17:10:56.444Z,14.82
2023-01-22T17:13:23.079Z,14.62
2023-01-22T17:15:49.788Z,16.79
2023-01-22T17:18:16.740Z,14.50
2023-01-22T17:20:57.456Z,14.33
2023-01-22T17:23:28.203Z,14.38
2023-01-22T17:25:55.021Z,15.89
2023-01-22T17:28:21.704Z,15.17
2023-01-22T17:30:48.703Z,17.36
2023-01-22T17:33:15.426Z,16.04
2023-01-22T17:35:42.087Z,15.05
2023-01-22T17:38:08.742Z,13.73
2023-01-22T17:40:36.842Z,14.17
2023-01-22T17:43:03.496Z,15.97
2023-01-22T17:45:30.176Z,16.28
2023-01-22T17:47:56.847Z,17.25
2023-01-22T17:50:23.521Z,17.46
2023-01-22T17:52:50.281Z,19.37
2023-01-22T17:55:17.454Z,19.03
2023-01-22T17:57:44.245Z,22.64
2023-01-22T18:00:11.359Z,23.12
2023-01-22T18:02:38.073Z,19.40
2023-01-22T18:05:04.972Z,19.44
2023-01-22T18:07:31.649Z,18.74
2023-01-22T18:09:58.310Z,18.68
2023-01-22T18:12:24.964Z,17.93
2023-01-22T18:14:51.608Z,16.12
2023-01-22T18:17:18.346Z,14.65
2023-01-22T18:19:45.010Z,14.46
2023-01-22T18:22:11.660Z,18.01
2023-01-22T18:24:38.301Z,20.73
2023-01-22T18:27:04.944Z,22.32
2023-01-22T18:29:31.585Z,23.52
2023-01-22T18:31:58.380Z,22.92
2023-01-22T18:34:25.126Z,24.65
2023-01-22T18:36:51.805Z,26.01
2023-01-22T18:39:18.681Z,23.27
2023-01-22T18:41:45.582Z,23.36
2023-01-22T18:44:12.637Z,24.88
2023-01-22T18:46:39.401Z,26.77
2023-01-22T18:49:08.184Z,26.67
2023-01-22T18:51:34.905Z,24.53
2023-01-22T18:54:02.304Z,23.16
2023-01-22T18:56:29.031Z,22.81
2023-01-22T18:58:56.349Z,22.17
2023-01-22T19:01:24.780Z,24.83
2023-01-22T19:03:56.218Z,27.65
2023-01-22T19:06:26.176Z,24.84
2023-01-22T19:09:00.933Z,26.38
2023-01-22T19:11:27.602Z,25.76
2023-01-22T19:13:55.249Z,29.30
2023-01-22T19:16:23.389Z,27.98
2023-01-22T19:18:56.716Z,24.24
2023-01-22T19:21:23.682Z,21.94
2023-01-22T19:23:52.314Z,27.52
2023-01-22T19:26:23.662Z,31.40
2023-01-22T19:28:52.418Z,47.38
2023-01-22T19:31:23.153Z,32.00
2023-01-22T19:33:50.360Z,27.26
2023-01-22T19:36:17.440Z,30.43
2023-01-22T19:38:44.169Z,23.32
2023-01-22T19:41:10.808Z,24.36
2023-01-22T19:43:37.462Z,27.26
2023-01-22T19:46:05.565Z,27.77
2023-01-22T19:48:32.225Z,24.96
2023-01-22T19:50:59.891Z,20.74
2023-01-22T19:53:26.588Z,23.58
2023-01-22T19:55:53.220Z,22.66
2023-01-22T19:58:19.889Z,24.50
2023-01-22T20:00:46.976Z,23.42
2023-01-22T20:03:13.619Z,24.48
2023-01-22T20:05:40.706Z,25.66
2023-01-22T20:08:10.557Z,24.71
2023-01-22T20:10:37.494Z,23.48
2023-01-22T20:13:04.655Z,24.08
2023-01-22T20:15:31.418Z,23.34
2023-01-22T20:17:58.060Z,22.69
2023-01-22T20:20:24.693Z,21.35
2023-01-22T20:22:52.569Z,23.01
2023-01-22T20:25:21.885Z,22.71
2023-01-22T20:27:48.886Z,22.31
2023-01-22T20:30:15.650Z,23.13
2023-01-22T20:32:42.749Z,23.24
2023-01-22T20:35:09.666Z,24.38
2023-01-22T20:37:36.341Z,22.97
2023-01-22T20:40:03.003Z,27.80
2023-01-22T20:42:29.622Z,26.32
2023-01-22T20:44:56.290Z,25.27
2023-01-22T20:47:22.954Z,24.07
2023-01-22T20:49:49.617Z,23.09
2023-01-22T20:52:16.793Z,23.64
2023-01-22T20:55:00.435Z,22.51
2023-01-22T20:57:29.009Z,19.83
2023-01-22T20:59:55.685Z,19.11
2023-01-22T21:02:22.451Z,19.88
2023-01-22T21:04:52.489Z,19.57
2023-01-22T21:07:19.665Z,18.08
2023-01-22T21:09:46.337Z,17.65
2023-01-22T21:12:13.010Z,18.24
2023-01-22T21:14:39.835Z,17.50
2023-01-22T21:17:06.521Z,17.55
2023-01-22T21:19:33.167Z,17.34
2023-01-22T21:21:59.814Z,18.05
2023-01-22T21:24:26.909Z,17.35
2023-01-22T21:26:53.686Z,17.10
2023-01-22T21:29:21.384Z,17.55
2023-01-22T21:31:48.901Z,16.65
2023-01-22T21:34:16.395Z,16.47
2023-01-22T21:36:44.675Z,16.91
2023-01-22T21:39:14.858Z,16.46
2023-01-22T21:41:42.508Z,16.40
2023-01-22T21:44:13.489Z,16.95
2023-01-22T21:46:42.282Z,18.29
2023-01-22T21:49:10.803Z,17.60
2023-01-22T21:51:37.472Z,18.15
2023-01-22T21:54:04.140Z,17.10
2023-01-22T21:56:30.811Z,17.63
2023-01-22T21:58:57.447Z,17.08
2023-01-22T22:01:24.163Z,16.21
2023-01-22T22:03:50.840Z,16.36
2023-01-22T22:06:17.567Z,16.57
2023-01-22T22:08:44.361Z,17.35
2023-01-22T22:11:12.561Z,16.03
2023-01-22T22:13:39.415Z,16.16
2023-01-22T22:16:06.989Z,16.55
2023-01-22T22:18:33.683Z,17.82
2023-01-22T22:21:04.239Z,17.36
2023-01-22T22:23:31.039Z,18.48
2023-01-22T22:25:57.953Z,20.96
2023-01-22T22:28:24.888Z,18.03
2023-01-22T22:30:51.609Z,17.57
2023-01-22T22:33:18.381Z,18.02
2023-01-22T22:35:47.977Z,18.34
2023-01-22T22:38:17.134Z,16.65
2023-01-22T22:40:43.828Z,17.39
2023-01-22T22:43:10.477Z,17.35
2023-01-22T22:45:37.791Z,16.68
2023-01-22T22:48:05.101Z,16.22
2023-01-22T22:50:31.892Z,17.53
2023-01-22T22:52:58.564Z,18.24
2023-01-22T22:55:25.218Z,16.45
2023-01-22T22:57:51.874Z,17.21
2023-01-22T23:00:18.978Z,17.84
2023-01-22T23:02:45.761Z,17.59
2023-01-22T23:05:12.393Z,17.93
2023-01-22T23:07:39.025Z,17.22
2023-01-22T23:10:06.168Z,17.21
2023-01-22T23:12:32.825Z,17.02
2023-01-22T23:14:59.463Z,17.03
2023-01-22T23:17:26.132Z,16.50
2023-01-22T23:19:52.778Z,16.41
2023-01-22T23:22:19.410Z,15.60
2023-01-22T23:24:46.050Z,15.93
2023-01-22T23:27:12.740Z,17.07
2023-01-22T23:29:39.381Z,16.29
2023-01-22T23:32:06.025Z,16.11
2023-01-22T23:34:32.685Z,17.43
2023-01-22T23:36:59.339Z,15.24
2023-01-22T23:39:26.038Z,15.55
2023-01-22T23:41:52.696Z,14.62
2023-01-22T23:44:19.366Z,15.28
2023-01-22T23:46:46.097Z,15.37
2023-01-22T23:49:12.788Z,14.90
2023-01-22T23:51:39.470Z,15.61
2023-01-22T23:54:06.121Z,15.49
2023-01-22T23:56:32.768Z,15.90
2023-01-22T23:58:59.467Z,14.74
